Terminal Aerodrome Forecast
Issued by NWS Newport/Morehead City, NC

Home | Current Version | Previous Version | Text Only | Print | Product List | Glossary On
Versions: 1 2 3 4 5 6 7 8 9 10 11 12 13 14 15 16 17 18 19
000
FTUS42 KMHX 132300
TAFEWN
TAF
KEWN 132332Z 1400/1424 17006KT P6SM SCT020 SCT250
     FM141400 17013G23KT P6SM SCT030 BKN200
      TEMPO 1420/1424 BKN030=

USA.gov is the U.S. government's official web portal to all federal, state and local government web resources and services.